createdAt,value
2022-12-31T00:02:12.916Z,17.80
2022-12-31T00:04:51.224Z,17.90
2022-12-31T00:07:19.920Z,17.97
2022-12-31T00:09:48.646Z,17.03
2022-12-31T00:12:17.506Z,20.17
2022-12-31T00:14:46.254Z,22.03
2022-12-31T00:17:16.287Z,24.63
2022-12-31T00:19:44.984Z,21.43
2022-12-31T00:22:13.604Z,20.07
2022-12-31T00:24:42.420Z,17.80
2022-12-31T00:27:48.173Z,17.73
2022-12-31T00:30:16.859Z,17.10
2022-12-31T00:33:06.566Z,16.97
2022-12-31T00:35:36.638Z,15.47
2022-12-31T00:38:05.453Z,14.83
2022-12-31T00:40:58.780Z,14.70
2022-12-31T00:43:27.457Z,13.43
2022-12-31T00:45:56.392Z,13.17
2022-12-31T00:48:27.091Z,13.57
2022-12-31T00:50:56.734Z,11.73
2022-12-31T00:53:27.797Z,10.50
2022-12-31T00:56:01.588Z,10.40
2022-12-31T00:58:30.607Z,10.80
2022-12-31T01:00:59.392Z,9.73
2022-12-31T01:03:29.754Z,11.50
2022-12-31T01:06:47.391Z,13.93
2022-12-31T01:09:17.048Z,31.13
2022-12-31T01:11:45.768Z,30.70
2022-12-31T01:14:16.535Z,30.07
2022-12-31T01:16:48.466Z,29.37
2022-12-31T01:19:20.884Z,29.00
2022-12-31T01:22:15.109Z,31.23
2022-12-31T01:24:43.776Z,29.23
2022-12-31T01:27:12.369Z,34.87
2022-12-31T01:29:41.016Z,41.10
2022-12-31T01:32:09.410Z,40.67
2022-12-31T01:34:39.523Z,31.13
2022-12-31T01:37:08.158Z,29.33
2022-12-31T01:39:36.555Z,28.73
2022-12-31T01:42:05.644Z,34.30
2022-12-31T01:44:54.899Z,31.97
2022-12-31T01:47:35.454Z,28.40
2022-12-31T01:50:11.831Z,26.77
2022-12-31T01:52:43.245Z,27.07
2022-12-31T01:55:18.113Z,25.27
2022-12-31T01:57:49.090Z,27.30
2022-12-31T02:00:18.460Z,27.27
2022-12-31T02:02:47.961Z,27.37
2022-12-31T02:05:25.243Z,24.97
2022-12-31T02:07:55.689Z,25.73
2022-12-31T02:10:24.552Z,24.20
2022-12-31T02:12:54.281Z,23.37
2022-12-31T02:15:29.772Z,23.93
2022-12-31T02:18:04.981Z,22.53
2022-12-31T02:21:02.291Z,22.27
2022-12-31T02:24:05.027Z,25.47
2022-12-31T02:26:50.902Z,24.30
2022-12-31T02:30:00.009Z,29.03
2022-12-31T02:32:39.537Z,23.27
2022-12-31T02:35:12.145Z,21.70
2022-12-31T02:37:43.148Z,20.30
2022-12-31T02:40:16.240Z,20.33
2022-12-31T02:42:48.611Z,19.53
2022-12-31T02:45:24.720Z,18.47
2022-12-31T02:48:07.642Z,18.07
2022-12-31T02:50:55.840Z,19.33
2022-12-31T02:53:53.641Z,18.73
2022-12-31T02:56:28.749Z,20.10
2022-12-31T03:02:43.404Z,19.93
2022-12-31T03:05:15.637Z,21.73
2022-12-31T03:07:45.765Z,20.20
2022-12-31T03:10:15.852Z,19.67
2022-12-31T03:12:48.388Z,17.80
2022-12-31T03:15:23.473Z,17.80
2022-12-31T03:17:55.080Z,16.70
2022-12-31T03:20:45.520Z,16.10
2022-12-31T03:23:16.815Z,16.00
2022-12-31T03:25:45.100Z,15.73
2022-12-31T03:28:16.081Z,14.53
2022-12-31T03:30:47.722Z,14.17
2022-12-31T03:33:17.087Z,13.70
2022-12-31T03:35:49.066Z,11.83
2022-12-31T03:38:19.047Z,12.17
2022-12-31T03:40:49.827Z,13.07
2022-12-31T03:43:19.368Z,13.87
2022-12-31T03:45:50.382Z,17.40
2022-12-31T03:48:19.735Z,12.80
2022-12-31T03:51:14.217Z,11.83
2022-12-31T03:53:43.202Z,11.80
2022-12-31T03:56:11.890Z,12.97
2022-12-31T03:58:40.500Z,13.33
2022-12-31T04:01:09.299Z,12.43
2022-12-31T04:03:38.391Z,14.47
2022-12-31T04:06:07.153Z,15.03
2022-12-31T04:08:49.378Z,15.07
2022-12-31T04:11:43.338Z,14.03
2022-12-31T04:14:12.472Z,17.77
2022-12-31T04:16:41.192Z,21.93
2022-12-31T04:19:09.862Z,18.83
2022-12-31T04:21:38.350Z,16.60
2022-12-31T04:24:09.562Z,17.03
2022-12-31T04:26:38.760Z,16.80
2022-12-31T04:29:07.928Z,13.30
2022-12-31T04:31:36.853Z,12.17
2022-12-31T04:34:05.693Z,11.07
2022-12-31T04:36:34.182Z,12.07
2022-12-31T04:39:03.129Z,9.73
2022-12-31T04:41:33.035Z,11.53
2022-12-31T04:44:01.909Z,10.17
2022-12-31T04:46:32.929Z,11.20
2022-12-31T04:49:02.297Z,10.30
2022-12-31T04:51:32.478Z,10.07
2022-12-31T04:54:01.632Z,10.60
2022-12-31T04:56:30.700Z,10.10
2022-12-31T04:59:00.957Z,9.77
2022-12-31T05:01:29.677Z,10.47
2022-12-31T05:03:58.957Z,11.30
2022-12-31T05:06:27.762Z,9.83
2022-12-31T05:08:56.371Z,9.23
2022-12-31T05:11:25.067Z,10.07
2022-12-31T05:13:56.848Z,8.80
2022-12-31T05:16:27.131Z,10.07
2022-12-31T05:18:55.788Z,8.97
2022-12-31T05:21:24.436Z,10.13
2022-12-31T05:23:53.372Z,10.63
2022-12-31T05:26:21.967Z,10.80
2022-12-31T05:28:50.472Z,11.07
2022-12-31T05:31:19.243Z,10.23
2022-12-31T05:33:49.553Z,10.90
2022-12-31T05:36:18.229Z,11.33
2022-12-31T05:38:46.836Z,12.57
2022-12-31T05:41:15.537Z,11.57
2022-12-31T05:43:44.252Z,12.00
2022-12-31T05:46:12.800Z,10.23
2022-12-31T05:48:41.506Z,9.43
2022-12-31T05:51:11.995Z,8.73
2022-12-31T05:53:40.460Z,9.27
2022-12-31T05:56:09.194Z,9.93
2022-12-31T05:58:37.907Z,9.50
2022-12-31T06:01:06.813Z,9.80
2022-12-31T06:03:35.574Z,9.73
2022-12-31T06:06:04.139Z,10.67
2022-12-31T06:08:34.398Z,10.60
2022-12-31T06:11:03.282Z,13.33
2022-12-31T06:13:50.942Z,14.40
2022-12-31T06:16:19.561Z,11.40
2022-12-31T06:18:51.611Z,15.23
2022-12-31T06:21:21.705Z,17.63
2022-12-31T06:23:51.955Z,21.40
2022-12-31T06:26:20.493Z,18.67
2022-12-31T06:28:49.206Z,15.83
2022-12-31T06:31:17.954Z,18.90
2022-12-31T06:33:48.499Z,21.77
2022-12-31T06:36:42.041Z,15.13
2022-12-31T06:39:12.300Z,13.13
2022-12-31T06:41:41.037Z,12.73
2022-12-31T06:44:09.689Z,12.40
2022-12-31T06:46:38.753Z,14.17
2022-12-31T06:49:07.740Z,14.20
2022-12-31T06:51:36.404Z,13.77
2022-12-31T06:54:05.150Z,13.23
2022-12-31T06:56:36.853Z,14.03
2022-12-31T07:02:24.375Z,14.47
2022-12-31T07:05:19.417Z,16.87
2022-12-31T07:07:59.908Z,14.57
2022-12-31T07:10:37.635Z,15.50
2022-12-31T07:13:44.974Z,16.13
2022-12-31T07:16:37.190Z,15.63
2022-12-31T07:19:26.120Z,21.17
2022-12-31T07:21:57.549Z,21.83
2022-12-31T07:24:27.468Z,19.43
2022-12-31T07:27:22.620Z,19.43
2022-12-31T07:30:03.647Z,22.67
2022-12-31T07:32:51.955Z,22.17
2022-12-31T07:35:35.073Z,20.43
2022-12-31T07:38:09.620Z,24.17
2022-12-31T07:40:59.162Z,23.57
2022-12-31T07:43:34.809Z,22.70
2022-12-31T07:46:13.664Z,20.87
2022-12-31T07:48:42.709Z,20.93
2022-12-31T07:51:12.988Z,26.67
2022-12-31T07:53:41.714Z,24.07
2022-12-31T07:56:11.305Z,22.90
2022-12-31T07:59:03.963Z,20.37
2022-12-31T08:01:39.168Z,16.97
2022-12-31T08:04:14.038Z,16.80
2022-12-31T08:06:53.046Z,18.33
2022-12-31T08:09:34.722Z,19.03
2022-12-31T08:12:04.386Z,18.13
2022-12-31T08:14:35.139Z,26.47
2022-12-31T08:17:06.629Z,20.23
2022-12-31T08:19:35.812Z,22.77
2022-12-31T08:22:25.432Z,21.03
2022-12-31T08:25:08.130Z,20.27
2022-12-31T08:27:48.316Z,18.70
2022-12-31T08:30:18.589Z,24.73
2022-12-31T08:33:35.130Z,21.07
2022-12-31T08:36:16.513Z,20.93
2022-12-31T08:38:53.663Z,22.70
2022-12-31T08:41:30.132Z,21.00
2022-12-31T08:44:09.377Z,17.70
2022-12-31T08:47:18.298Z,16.07
2022-12-31T08:49:49.506Z,15.30
2022-12-31T08:52:24.374Z,13.43
2022-12-31T08:54:54.014Z,14.63
2022-12-31T08:57:33.714Z,14.00
2022-12-31T09:00:28.211Z,13.70
2022-12-31T09:03:22.252Z,13.83
2022-12-31T09:06:04.375Z,13.87
2022-12-31T09:08:42.815Z,15.10
2022-12-31T09:11:22.572Z,16.17
2022-12-31T09:14:19.840Z,14.67
2022-12-31T09:16:57.485Z,14.60
2022-12-31T09:19:52.768Z,19.60
2022-12-31T09:22:24.126Z,22.70
2022-12-31T09:24:53.381Z,26.07
2022-12-31T09:27:28.045Z,19.17
2022-12-31T09:30:03.954Z,22.87
2022-12-31T09:32:43.099Z,23.17
2022-12-31T09:35:21.149Z,22.70
2022-12-31T09:37:53.831Z,19.63
2022-12-31T09:41:06.915Z,22.13
2022-12-31T09:44:09.154Z,22.27
2022-12-31T09:47:13.170Z,22.77
2022-12-31T09:50:13.969Z,23.83
2022-12-31T09:53:19.761Z,23.03
2022-12-31T09:55:53.822Z,21.80
2022-12-31T09:58:34.078Z,21.97
2022-12-31T10:01:11.998Z,19.03
2022-12-31T10:04:18.028Z,19.23
2022-12-31T10:06:52.917Z,20.10
2022-12-31T10:09:48.436Z,25.73
2022-12-31T10:12:53.121Z,20.43
2022-12-31T10:15:55.543Z,18.53
2022-12-31T10:18:37.974Z,18.60
2022-12-31T10:21:20.539Z,17.73
2022-12-31T10:24:11.086Z,17.73
2022-12-31T10:27:19.997Z,17.70
2022-12-31T10:29:59.241Z,19.13
2022-12-31T10:32:37.053Z,20.17
2022-12-31T10:35:32.483Z,19.57
2022-12-31T10:38:21.842Z,19.27
2022-12-31T10:41:25.627Z,17.20
2022-12-31T10:44:22.661Z,17.77
2022-12-31T10:47:12.137Z,18.87
2022-12-31T10:50:23.283Z,17.40
2022-12-31T10:53:23.682Z,17.60
2022-12-31T10:56:16.598Z,19.53
2022-12-31T10:59:26.835Z,18.27
2022-12-31T11:02:11.577Z,18.27
2022-12-31T11:05:41.691Z,17.97
2022-12-31T11:08:27.421Z,16.47
2022-12-31T11:11:11.696Z,17.27
2022-12-31T11:14:25.995Z,16.67
2022-12-31T11:17:14.208Z,17.10
2022-12-31T11:19:55.713Z,16.90
2022-12-31T11:22:41.968Z,16.67
2022-12-31T11:25:37.315Z,15.83
2022-12-31T11:28:29.220Z,18.30
2022-12-31T11:31:17.729Z,17.33
2022-12-31T11:34:10.647Z,17.30
2022-12-31T11:36:46.784Z,15.53
2022-12-31T11:39:36.588Z,16.40
2022-12-31T11:42:15.871Z,16.37
2022-12-31T11:44:51.676Z,16.10
2022-12-31T11:48:20.602Z,15.60
2022-12-31T11:51:15.969Z,13.83
2022-12-31T11:54:07.128Z,15.73
2022-12-31T11:56:39.221Z,16.00
2022-12-31T11:59:19.008Z,15.73
2022-12-31T12:01:59.779Z,16.03
2022-12-31T12:04:29.052Z,15.77
2022-12-31T12:06:59.472Z,16.03
2022-12-31T12:09:30.930Z,16.77
2022-12-31T12:12:01.224Z,14.97
2022-12-31T12:14:34.081Z,16.13
2022-12-31T12:17:05.448Z,15.10
2022-12-31T12:19:36.658Z,15.80
2022-12-31T12:22:14.936Z,15.70
2022-12-31T12:24:54.674Z,15.43
2022-12-31T12:27:25.141Z,14.23
2022-12-31T12:29:54.044Z,13.77
2022-12-31T12:32:25.067Z,14.37
2022-12-31T12:34:54.181Z,14.13
2022-12-31T12:37:39.112Z,14.43
2022-12-31T12:40:19.991Z,13.00
2022-12-31T12:42:50.005Z,12.57
2022-12-31T12:45:22.552Z,12.90
2022-12-31T12:47:56.662Z,12.90
2022-12-31T12:50:33.863Z,11.83
2022-12-31T12:53:17.418Z,13.10
2022-12-31T12:55:59.911Z,13.53
2022-12-31T12:58:41.874Z,11.67
2022-12-31T13:01:24.177Z,11.47
2022-12-31T13:04:38.539Z,12.80
2022-12-31T13:07:32.692Z,11.97
2022-12-31T13:10:17.746Z,11.80
2022-12-31T13:15:48.415Z,10.47
2022-12-31T13:18:30.204Z,9.53
2022-12-31T13:21:04.718Z,9.40
2022-12-31T13:23:41.592Z,10.27
2022-12-31T13:26:18.503Z,10.70
2022-12-31T13:28:49.593Z,10.17
2022-12-31T13:31:23.812Z,9.33
2022-12-31T13:34:01.172Z,13.40
2022-12-31T13:36:32.872Z,10.13
2022-12-31T13:39:03.764Z,10.20
2022-12-31T13:41:40.299Z,9.30
2022-12-31T13:44:15.639Z,8.70
2022-12-31T13:46:49.765Z,11.30
2022-12-31T13:49:25.349Z,9.67
2022-12-31T13:52:00.832Z,11.83
2022-12-31T13:54:38.919Z,14.30
2022-12-31T13:57:16.366Z,12.17
2022-12-31T13:59:50.109Z,10.47
2022-12-31T14:02:34.789Z,15.60
2022-12-31T14:05:08.121Z,9.97
2022-12-31T14:07:45.776Z,8.70
2022-12-31T14:10:16.573Z,9.63
2022-12-31T14:12:54.514Z,11.00
2022-12-31T14:15:30.760Z,11.07
2022-12-31T14:18:05.995Z,9.43
2022-12-31T14:21:03.345Z,8.07
2022-12-31T14:23:41.958Z,8.37
2022-12-31T14:26:20.312Z,8.13
2022-12-31T14:29:01.214Z,7.50
2022-12-31T14:31:40.768Z,8.03
2022-12-31T14:34:19.655Z,8.17
2022-12-31T14:36:59.998Z,7.90
2022-12-31T14:39:45.237Z,12.50
2022-12-31T14:42:25.785Z,21.50
2022-12-31T14:45:16.466Z,11.43
2022-12-31T14:47:54.153Z,9.40
2022-12-31T14:50:26.486Z,10.47
2022-12-31T14:52:56.963Z,10.23
2022-12-31T14:55:28.837Z,13.63
2022-12-31T14:58:26.898Z,23.97
2022-12-31T15:01:22.760Z,22.40
2022-12-31T15:03:51.884Z,15.40
2022-12-31T15:06:46.796Z,12.17
2022-12-31T15:09:29.450Z,10.70
2022-12-31T15:12:19.075Z,8.90
2022-12-31T15:15:09.709Z,9.57
2022-12-31T15:17:50.992Z,8.37
2022-12-31T15:20:59.388Z,9.83
2022-12-31T15:23:35.872Z,8.97
2022-12-31T15:26:05.985Z,8.67
2022-12-31T15:28:37.670Z,8.67
2022-12-31T15:31:19.407Z,8.20
2022-12-31T15:34:04.356Z,8.33
2022-12-31T15:36:35.893Z,7.40
2022-12-31T15:39:39.426Z,8.37
2022-12-31T15:42:38.772Z,10.57
2022-12-31T15:45:17.500Z,12.30
2022-12-31T15:47:50.413Z,12.23
2022-12-31T15:51:07.548Z,12.37
2022-12-31T15:53:40.900Z,11.87
2022-12-31T15:56:18.724Z,8.73
2022-12-31T15:58:48.984Z,8.33
2022-12-31T16:01:21.841Z,7.47
2022-12-31T16:03:56.062Z,9.00
2022-12-31T16:06:29.169Z,7.60
2022-12-31T16:08:58.832Z,9.03
2022-12-31T16:11:30.602Z,8.77
2022-12-31T16:14:00.184Z,8.50
2022-12-31T16:16:31.706Z,10.87
2022-12-31T16:19:00.802Z,9.80
2022-12-31T16:21:34.261Z,8.53
2022-12-31T16:24:06.759Z,8.50
2022-12-31T16:26:40.398Z,8.20
2022-12-31T16:29:14.962Z,8.77
2022-12-31T16:31:54.594Z,8.80
2022-12-31T16:34:25.618Z,11.07
2022-12-31T16:37:00.761Z,9.10
2022-12-31T16:39:32.341Z,12.13
2022-12-31T16:42:29.601Z,12.57
2022-12-31T16:44:59.145Z,13.80
2022-12-31T16:47:33.672Z,10.80
2022-12-31T16:50:08.048Z,14.07
2022-12-31T16:52:41.257Z,9.97
2022-12-31T16:55:12.106Z,18.07
2022-12-31T16:58:13.783Z,14.83
2022-12-31T17:01:04.675Z,8.93
2022-12-31T17:03:34.113Z,20.50
2022-12-31T17:06:14.092Z,15.43
2022-12-31T17:08:46.539Z,15.50
2022-12-31T17:11:39.529Z,23.23
2022-12-31T17:14:14.760Z,15.00
2022-12-31T17:17:03.627Z,15.67
2022-12-31T17:19:40.230Z,17.37
2022-12-31T17:22:14.577Z,12.70
2022-12-31T17:24:44.873Z,10.30
2022-12-31T17:27:13.888Z,8.00
2022-12-31T17:29:42.569Z,8.47
2022-12-31T17:32:31.189Z,7.97
2022-12-31T17:34:59.854Z,7.57
2022-12-31T17:37:29.981Z,7.77
2022-12-31T17:40:49.814Z,8.40
2022-12-31T17:42:53.492Z,8.97
2022-12-31T17:45:23.721Z,9.10
2022-12-31T17:47:55.791Z,10.03
2022-12-31T17:50:26.910Z,8.80
2022-12-31T17:52:58.811Z,14.03
2022-12-31T17:55:30.832Z,9.47
2022-12-31T17:57:59.674Z,11.27
2022-12-31T18:00:29.046Z,6.23
2022-12-31T18:02:57.803Z,8.83
2022-12-31T18:05:27.291Z,8.47
2022-12-31T18:07:56.006Z,7.17
2022-12-31T18:10:26.070Z,8.07
2022-12-31T18:12:56.231Z,7.57
2022-12-31T18:15:26.269Z,9.37
2022-12-31T18:17:54.928Z,13.97
2022-12-31T18:20:23.878Z,15.13
2022-12-31T18:22:52.695Z,9.53
2022-12-31T18:25:24.308Z,9.57
2022-12-31T18:27:53.586Z,9.60
2022-12-31T18:30:23.916Z,8.90
2022-12-31T18:32:52.695Z,8.43
2022-12-31T18:38:14.856Z,9.57
2022-12-31T18:40:46.836Z,8.10
2022-12-31T18:43:17.991Z,8.83
2022-12-31T18:45:49.045Z,8.20
2022-12-31T18:48:17.994Z,8.70
2022-12-31T18:50:47.382Z,8.57
2022-12-31T18:53:22.013Z,9.50
2022-12-31T18:55:52.521Z,9.33
2022-12-31T18:58:47.183Z,9.10
2022-12-31T19:01:27.806Z,8.47
2022-12-31T19:03:57.687Z,7.33
2022-12-31T19:06:26.784Z,8.30
2022-12-31T19:08:55.851Z,8.83
2022-12-31T19:11:24.971Z,9.07
2022-12-31T19:13:53.556Z,9.17
2022-12-31T19:16:24.140Z,9.70
2022-12-31T19:18:52.874Z,9.67
2022-12-31T19:21:24.228Z,9.23
2022-12-31T19:23:53.318Z,10.30
2022-12-31T19:26:24.114Z,11.83
2022-12-31T19:28:52.998Z,10.13
2022-12-31T19:31:23.395Z,8.27
2022-12-31T19:33:52.126Z,8.73
2022-12-31T19:36:21.818Z,8.00
2022-12-31T19:38:50.250Z,9.03
2022-12-31T19:41:21.263Z,9.50
2022-12-31T19:44:15.590Z,8.50
2022-12-31T19:46:46.758Z,7.57
2022-12-31T19:49:16.323Z,10.53
2022-12-31T19:51:44.974Z,8.33
2022-12-31T19:54:14.839Z,7.67
2022-12-31T19:56:46.559Z,7.03
2022-12-31T19:59:15.680Z,8.07
2022-12-31T20:01:46.217Z,7.40
2022-12-31T20:04:14.945Z,7.33
2022-12-31T20:06:43.321Z,7.03
2022-12-31T20:09:12.917Z,7.13
2022-12-31T20:11:41.879Z,8.13
2022-12-31T20:14:10.587Z,11.50
2022-12-31T20:16:39.176Z,11.70
2022-12-31T20:19:10.997Z,16.53
2022-12-31T20:21:39.838Z,7.37
2022-12-31T20:24:09.107Z,6.67
2022-12-31T20:26:37.888Z,7.80
2022-12-31T20:29:06.455Z,10.47
2022-12-31T20:31:34.982Z,9.67
2022-12-31T20:34:03.674Z,8.37
2022-12-31T20:36:34.134Z,6.70
2022-12-31T20:39:03.058Z,7.20
2022-12-31T20:41:32.248Z,8.10
2022-12-31T20:44:01.261Z,8.90
2022-12-31T20:46:31.621Z,8.07
2022-12-31T20:49:01.794Z,8.00
2022-12-31T20:51:33.643Z,6.83
2022-12-31T20:54:08.402Z,10.40
2022-12-31T20:56:39.331Z,8.03
2022-12-31T20:59:08.747Z,18.80
2022-12-31T21:02:11.813Z,12.53
2022-12-31T21:04:26.481Z,14.47
2022-12-31T21:06:56.690Z,13.67
2022-12-31T21:09:25.538Z,13.40
2022-12-31T21:12:11.446Z,11.93
2022-12-31T21:14:44.519Z,10.03
2022-12-31T21:17:15.786Z,12.80
2022-12-31T21:19:44.413Z,16.27
2022-12-31T21:22:14.774Z,16.37
2022-12-31T21:24:43.591Z,18.57
2022-12-31T21:27:12.059Z,20.50
2022-12-31T21:30:02.057Z,19.73
2022-12-31T21:32:29.452Z,18.87
2022-12-31T21:35:31.561Z,14.47
2022-12-31T21:37:58.088Z,15.10
2022-12-31T21:40:29.307Z,13.80
2022-12-31T21:42:58.037Z,13.20
2022-12-31T21:45:26.898Z,10.93
2022-12-31T21:48:15.178Z,16.67
2022-12-31T21:50:43.663Z,14.43
2022-12-31T21:53:16.572Z,17.17
2022-12-31T21:56:06.351Z,11.50
2022-12-31T21:58:35.091Z,11.40
2022-12-31T22:01:20.631Z,9.30
2022-12-31T22:03:49.637Z,9.93
2022-12-31T22:06:22.200Z,12.17
2022-12-31T22:08:54.886Z,13.73
2022-12-31T22:11:25.543Z,15.40
2022-12-31T22:13:55.185Z,17.53
2022-12-31T22:16:24.641Z,18.30
2022-12-31T22:18:56.151Z,21.93
2022-12-31T22:21:26.887Z,22.80
2022-12-31T22:23:58.921Z,17.30
2022-12-31T22:27:28.816Z,13.97
2022-12-31T22:29:58.089Z,12.50
2022-12-31T22:32:26.728Z,12.93
2022-12-31T22:34:55.704Z,11.87
2022-12-31T22:37:55.654Z,11.77
2022-12-31T22:40:14.954Z,11.63
2022-12-31T22:42:43.316Z,14.13
2022-12-31T22:45:12.994Z,12.20
2022-12-31T22:47:45.669Z,10.20
2022-12-31T22:50:14.258Z,10.30
2022-12-31T22:52:42.953Z,10.03
2022-12-31T22:55:11.859Z,10.20
2022-12-31T22:57:41.967Z,12.00
2022-12-31T23:00:14.246Z,12.07
2022-12-31T23:02:43.613Z,11.43
2022-12-31T23:05:34.445Z,11.40
2022-12-31T23:08:10.226Z,12.47
2022-12-31T23:14:17.961Z,11.50
2022-12-31T23:17:29.703Z,11.77
2022-12-31T23:20:09.947Z,11.93
2022-12-31T23:22:55.687Z,13.30
2022-12-31T23:25:24.402Z,14.23
2022-12-31T23:27:53.069Z,11.20
2022-12-31T23:30:23.273Z,11.03
2022-12-31T23:32:51.958Z,11.77
2022-12-31T23:35:21.067Z,11.63
2022-12-31T23:37:49.950Z,11.40
2022-12-31T23:40:22.883Z,14.43
2022-12-31T23:42:51.966Z,12.43
2022-12-31T23:45:20.718Z,14.60
2022-12-31T23:48:05.674Z,11.50
2022-12-31T23:50:34.318Z,12.77
2022-12-31T23:53:02.991Z,11.03
2022-12-31T23:55:32.352Z,11.33
2022-12-31T23:58:01.058Z,10.97
